sensor_id;sensor_type;location;lat;lon;timestamp;temperature;humidity
4293;DHT22;2160;51.172;6.808;2023-05-24T04:01:23;12.50;99.90
4293;DHT22;2160;51.172;6.808;2023-05-24T04:03:50;12.60;99.90
4293;DHT22;2160;51.172;6.808;2023-05-24T04:06:20;12.60;99.90
4293;DHT22;2160;51.172;6.808;2023-05-24T04:08:54;12.50;99.90
4293;DHT22;2160;51.172;6.808;2023-05-24T04:11:21;12.60;99.90
4293;DHT22;2160;51.172;6.808;2023-05-24T04:13:48;12.50;99.90
4293;DHT22;2160;51.172;6.808;2023-05-24T04:16:16;12.60;99.90
4293;DHT22;2160;51.172;6.808;2023-05-24T04:18:45;12.50;99.90
4293;DHT22;2160;51.172;6.808;2023-05-24T04:21:12;12.50;99.90
4293;DHT22;2160;51.172;6.808;2023-05-24T04:23:39;12.50;99.90
4293;DHT22;2160;51.172;6.808;2023-05-24T04:26:05;12.60;99.90
4293;DHT22;2160;51.172;6.808;2023-05-24T04:28:34;12.70;99.90
4293;DHT22;2160;51.172;6.808;2023-05-24T04:31:02;12.50;99.90
4293;DHT22;2160;51.172;6.808;2023-05-24T04:33:30;12.60;99.90
4293;DHT22;2160;51.172;6.808;2023-05-24T04:35:59;12.80;99.90
4293;DHT22;2160;51.172;6.808;2023-05-24T04:38:26;12.70;99.90
4293;DHT22;2160;51.172;6.808;2023-05-24T04:40:57;12.70;99.90
4293;DHT22;2160;51.172;6.808;2023-05-24T04:43:26;12.80;99.90
4293;DHT22;2160;51.172;6.808;2023-05-24T04:45:54;12.80;99.90
4293;DHT22;2160;51.172;6.808;2023-05-24T04:48:21;12.80;99.90
4293;DHT22;2160;51.172;6.808;2023-05-24T04:50:50;12.90;99.90
4293;DHT22;2160;51.172;6.808;2023-05-24T04:53:19;13.00;99.90
4293;DHT22;2160;51.172;6.808;2023-05-24T04:55:46;13.00;99.90
4293;DHT22;2160;51.172;6.808;2023-05-24T04:58:14;13.00;99.90
4293;DHT22;2160;51.172;6.808;2023-05-24T05:00:42;13.00;99.90
4293;DHT22;2160;51.172;6.808;2023-05-24T05:03:09;13.00;99.90
4293;DHT22;2160;51.172;6.808;2023-05-24T05:05:36;13.10;99.90
4293;DHT22;2160;51.172;6.808;2023-05-24T05:08:03;13.10;99.90
4293;DHT22;2160;51.172;6.808;2023-05-24T05:10:32;13.10;99.90
4293;DHT22;2160;51.172;6.808;2023-05-24T05:12:59;13.20;99.90
4293;DHT22;2160;51.172;6.808;2023-05-24T05:15:26;13.20;99.90
4293;DHT22;2160;51.172;6.808;2023-05-24T05:17:54;13.20;99.90
4293;DHT22;2160;51.172;6.808;2023-05-24T05:20:22;13.20;99.90
4293;DHT22;2160;51.172;6.808;2023-05-24T05:22:50;13.30;99.90
4293;DHT22;2160;51.172;6.808;2023-05-24T05:25:17;13.40;99.90
4293;DHT22;2160;51.172;6.808;2023-05-24T05:27:45;13.40;99.90
4293;DHT22;2160;51.172;6.808;2023-05-24T05:30:13;13.40;99.90
4293;DHT22;2160;51.172;6.808;2023-05-24T05:32:40;13.50;99.90
4293;DHT22;2160;51.172;6.808;2023-05-24T05:35:08;13.60;99.90
4293;DHT22;2160;51.172;6.808;2023-05-24T05:37:35;13.60;99.90
4293;DHT22;2160;51.172;6.808;2023-05-24T05:40:03;13.60;99.90
4293;DHT22;2160;51.172;6.808;2023-05-24T05:42:30;13.70;99.90
4293;DHT22;2160;51.172;6.808;2023-05-24T05:44:58;13.80;99.90
4293;DHT22;2160;51.172;6.808;2023-05-24T05:47:26;13.80;99.90
4293;DHT22;2160;51.172;6.808;2023-05-24T05:49:53;13.90;99.90
4293;DHT22;2160;51.172;6.808;2023-05-24T05:52:20;14.00;99.90
4293;DHT22;2160;51.172;6.808;2023-05-24T05:54:47;14.00;99.90
4293;DHT22;2160;51.172;6.808;2023-05-24T05:57:14;14.00;99.90
4293;DHT22;2160;51.172;6.808;2023-05-24T05:59:44;14.00;99.90
4293;DHT22;2160;51.172;6.808;2023-05-24T06:02:12;14.10;99.90
4293;DHT22;2160;51.172;6.808;2023-05-24T06:04:39;14.10;99.90
4293;DHT22;2160;51.172;6.808;2023-05-24T06:07:06;14.10;99.90
4293;DHT22;2160;51.172;6.808;2023-05-24T06:09:33;14.20;99.90
4293;DHT22;2160;51.172;6.808;2023-05-24T06:12:00;14.20;99.90
4293;DHT22;2160;51.172;6.808;2023-05-24T06:14:27;14.20;99.90
4293;DHT22;2160;51.172;6.808;2023-05-24T06:16:55;14.20;99.90
4293;DHT22;2160;51.172;6.808;2023-05-24T06:19:23;13.80;99.90
4293;DHT22;2160;51.172;6.808;2023-05-24T06:21:51;13.90;99.90
4293;DHT22;2160;51.172;6.808;2023-05-24T06:24:19;14.00;99.90
4293;DHT22;2160;51.172;6.808;2023-05-24T06:26:46;14.10;99.90
4293;DHT22;2160;51.172;6.808;2023-05-24T06:29:13;14.20;99.90
4293;DHT22;2160;51.172;6.808;2023-05-24T06:31:40;14.40;99.90
4293;DHT22;2160;51.172;6.808;2023-05-24T06:34:08;14.50;99.90
4293;DHT22;2160;51.172;6.808;2023-05-24T06:36:36;14.50;99.90
4293;DHT22;2160;51.172;6.808;2023-05-24T06:39:06;14.50;99.90
4293;DHT22;2160;51.172;6.808;2023-05-24T06:41:33;14.60;99.90
4293;DHT22;2160;51.172;6.808;2023-05-24T06:44:00;14.60;99.90
4293;DHT22;2160;51.172;6.808;2023-05-24T06:46:27;14.60;99.90
4293;DHT22;2160;51.172;6.808;2023-05-24T06:48:55;14.50;99.90
4293;DHT22;2160;51.172;6.808;2023-05-24T06:51:22;14.60;99.90
4293;DHT22;2160;51.172;6.808;2023-05-24T06:53:51;14.70;99.90
4293;DHT22;2160;51.172;6.808;2023-05-24T06:56:18;14.60;99.90
4293;DHT22;2160;51.172;6.808;2023-05-24T06:58:46;14.70;99.90
4293;DHT22;2160;51.172;6.808;2023-05-24T07:01:14;14.60;99.90
4293;DHT22;2160;51.172;6.808;2023-05-24T07:03:41;14.80;99.90
4293;DHT22;2160;51.172;6.808;2023-05-24T07:06:08;14.90;99.90
4293;DHT22;2160;51.172;6.808;2023-05-24T07:08:38;14.80;99.90
4293;DHT22;2160;51.172;6.808;2023-05-24T07:11:07;14.80;99.90
4293;DHT22;2160;51.172;6.808;2023-05-24T07:13:34;14.90;99.90
4293;DHT22;2160;51.172;6.808;2023-05-24T07:16:01;14.90;99.90
4293;DHT22;2160;51.172;6.808;2023-05-24T07:18:29;15.00;99.90
4293;DHT22;2160;51.172;6.808;2023-05-24T07:20:56;15.10;99.90
4293;DHT22;2160;51.172;6.808;2023-05-24T07:23:24;15.00;99.90
4293;DHT22;2160;51.172;6.808;2023-05-24T07:25:51;15.10;99.90
4293;DHT22;2160;51.172;6.808;2023-05-24T07:28:19;14.70;99.90
4293;DHT22;2160;51.172;6.808;2023-05-24T07:30:47;14.80;99.90
4293;DHT22;2160;51.172;6.808;2023-05-24T07:33:13;14.90;99.90
4293;DHT22;2160;51.172;6.808;2023-05-24T07:35:41;14.70;99.90
4293;DHT22;2160;51.172;6.808;2023-05-24T07:38:10;14.70;99.90
4293;DHT22;2160;51.172;6.808;2023-05-24T07:40:37;14.80;99.90
4293;DHT22;2160;51.172;6.808;2023-05-24T07:43:04;14.80;99.90
4293;DHT22;2160;51.172;6.808;2023-05-24T07:45:32;15.00;99.90
4293;DHT22;2160;51.172;6.808;2023-05-24T07:47:59;15.10;99.90
4293;DHT22;2160;51.172;6.808;2023-05-24T07:50:26;15.10;99.90
4293;DHT22;2160;51.172;6.808;2023-05-24T07:52:55;15.30;99.90
4293;DHT22;2160;51.172;6.808;2023-05-24T07:55:22;15.30;99.90
4293;DHT22;2160;51.172;6.808;2023-05-24T07:57:50;15.30;99.90
4293;DHT22;2160;51.172;6.808;2023-05-24T08:00:20;15.40;99.90
4293;DHT22;2160;51.172;6.808;2023-05-24T08:02:49;15.50;99.90
4293;DHT22;2160;51.172;6.808;2023-05-24T08:05:16;15.60;99.90
4293;DHT22;2160;51.172;6.808;2023-05-24T08:07:43;15.70;99.90
4293;DHT22;2160;51.172;6.808;2023-05-24T08:10:11;15.70;99.90
4293;DHT22;2160;51.172;6.808;2023-05-24T08:12:38;15.80;99.90
4293;DHT22;2160;51.172;6.808;2023-05-24T08:15:06;16.10;99.90
4293;DHT22;2160;51.172;6.808;2023-05-24T08:17:33;16.10;99.90
4293;DHT22;2160;51.172;6.808;2023-05-24T08:20:01;16.10;99.90
4293;DHT22;2160;51.172;6.808;2023-05-24T08:22:31;16.20;99.90
4293;DHT22;2160;51.172;6.808;2023-05-24T08:24:58;16.10;99.90
4293;DHT22;2160;51.172;6.808;2023-05-24T08:27:25;16.40;99.90
4293;DHT22;2160;51.172;6.808;2023-05-24T08:29:55;16.30;99.90
4293;DHT22;2160;51.172;6.808;2023-05-24T08:32:22;16.40;99.90
4293;DHT22;2160;51.172;6.808;2023-05-24T08:34:49;16.30;99.90
4293;DHT22;2160;51.172;6.808;2023-05-24T08:37:17;16.10;99.90
4293;DHT22;2160;51.172;6.808;2023-05-24T08:39:47;16.00;99.90
4293;DHT22;2160;51.172;6.808;2023-05-24T08:42:15;16.10;99.90
4293;DHT22;2160;51.172;6.808;2023-05-24T08:44:46;16.10;99.90
4293;DHT22;2160;51.172;6.808;2023-05-24T08:47:14;16.20;99.90
4293;DHT22;2160;51.172;6.808;2023-05-24T08:49:42;16.40;99.90
4293;DHT22;2160;51.172;6.808;2023-05-24T08:52:11;16.40;99.90
4293;DHT22;2160;51.172;6.808;2023-05-24T08:54:40;16.40;99.90
4293;DHT22;2160;51.172;6.808;2023-05-24T08:57:11;16.60;99.90
4293;DHT22;2160;51.172;6.808;2023-05-24T08:59:39;16.60;99.90
4293;DHT22;2160;51.172;6.808;2023-05-24T09:02:08;16.60;99.90
4293;DHT22;2160;51.172;6.808;2023-05-24T09:04:40;16.70;99.90
4293;DHT22;2160;51.172;6.808;2023-05-24T09:07:09;16.60;99.90
4293;DHT22;2160;51.172;6.808;2023-05-24T09:09:51;16.50;99.90
4293;DHT22;2160;51.172;6.808;2023-05-24T09:12:44;16.50;99.90
4293;DHT22;2160;51.172;6.808;2023-05-24T09:15:22;16.50;99.90
4293;DHT22;2160;51.172;6.808;2023-05-24T09:18:14;16.50;99.90
4293;DHT22;2160;51.172;6.808;2023-05-24T09:20:54;16.30;99.90
4293;DHT22;2160;51.172;6.808;2023-05-24T09:23:47;16.30;99.90
4293;DHT22;2160;51.172;6.808;2023-05-24T09:26:44;16.30;99.90
4293;DHT22;2160;51.172;6.808;2023-05-24T09:29:21;16.20;99.90
4293;DHT22;2160;51.172;6.808;2023-05-24T09:32:01;16.30;99.90
4293;DHT22;2160;51.172;6.808;2023-05-24T09:34:46;16.30;99.90
4293;DHT22;2160;51.172;6.808;2023-05-24T09:37:26;16.40;99.90
4293;DHT22;2160;51.172;6.808;2023-05-24T09:39:57;16.50;99.90
4293;DHT22;2160;51.172;6.808;2023-05-24T09:42:35;16.60;99.90
4293;DHT22;2160;51.172;6.808;2023-05-24T09:45:15;16.60;99.90
4293;DHT22;2160;51.172;6.808;2023-05-24T09:47:45;16.90;99.90
4293;DHT22;2160;51.172;6.808;2023-05-24T09:50:18;16.90;99.90
4293;DHT22;2160;51.172;6.808;2023-05-24T09:52:55;16.80;99.90
4293;DHT22;2160;51.172;6.808;2023-05-24T09:55:36;16.70;99.90
4293;DHT22;2160;51.172;6.808;2023-05-24T09:58:14;16.60;99.90
4293;DHT22;2160;51.172;6.808;2023-05-24T10:01:08;16.70;99.90
4293;DHT22;2160;51.172;6.808;2023-05-24T10:03:57;16.60;99.90
4293;DHT22;2160;51.172;6.808;2023-05-24T10:06:43;16.50;99.90
4293;DHT22;2160;51.172;6.808;2023-05-24T10:09:16;16.60;99.90
4293;DHT22;2160;51.172;6.808;2023-05-24T10:11:59;16.80;99.90
4293;DHT22;2160;51.172;6.808;2023-05-24T10:14:31;17.00;99.90
4293;DHT22;2160;51.172;6.808;2023-05-24T10:17:04;17.20;99.90
4293;DHT22;2160;51.172;6.808;2023-05-24T10:19:53;17.30;99.90
4293;DHT22;2160;51.172;6.808;2023-05-24T10:22:43;17.20;99.90
4293;DHT22;2160;51.172;6.808;2023-05-24T10:25:14;17.30;99.90
4293;DHT22;2160;51.172;6.808;2023-05-24T10:27:47;17.20;99.90
4293;DHT22;2160;51.172;6.808;2023-05-24T10:30:23;17.40;99.90
4293;DHT22;2160;51.172;6.808;2023-05-24T10:33:00;17.60;99.90
4293;DHT22;2160;51.172;6.808;2023-05-24T10:35:39;17.50;99.90
4293;DHT22;2160;51.172;6.808;2023-05-24T10:38:27;17.40;99.90
4293;DHT22;2160;51.172;6.808;2023-05-24T10:41:09;17.50;99.90
4293;DHT22;2160;51.172;6.808;2023-05-24T10:44:00;17.60;99.90
4293;DHT22;2160;51.172;6.808;2023-05-24T10:47:06;17.70;99.90
4293;DHT22;2160;51.172;6.808;2023-05-24T10:49:46;17.70;99.90
4293;DHT22;2160;51.172;6.808;2023-05-24T10:52:35;17.50;99.90
4293;DHT22;2160;51.172;6.808;2023-05-24T10:55:14;17.70;99.90
4293;DHT22;2160;51.172;6.808;2023-05-24T10:58:10;17.70;99.90
4293;DHT22;2160;51.172;6.808;2023-05-24T11:00:59;17.90;99.90
4293;DHT22;2160;51.172;6.808;2023-05-24T11:04:02;18.20;99.90
4293;DHT22;2160;51.172;6.808;2023-05-24T11:06:54;18.00;99.90
4293;DHT22;2160;51.172;6.808;2023-05-24T11:09:45;17.80;99.90
4293;DHT22;2160;51.172;6.808;2023-05-24T11:12:29;17.80;99.90
4293;DHT22;2160;51.172;6.808;2023-05-24T11:15:31;17.90;99.90
4293;DHT22;2160;51.172;6.808;2023-05-24T11:18:22;17.90;99.90
4293;DHT22;2160;51.172;6.808;2023-05-24T11:21:15;18.00;99.90
4293;DHT22;2160;51.172;6.808;2023-05-24T11:23:43;17.90;99.90
4293;DHT22;2160;51.172;6.808;2023-05-24T11:26:27;18.00;99.90
4293;DHT22;2160;51.172;6.808;2023-05-24T11:29:03;18.10;99.90
4293;DHT22;2160;51.172;6.808;2023-05-24T11:31:33;17.90;99.90
4293;DHT22;2160;51.172;6.808;2023-05-24T11:34:08;18.10;99.90
4293;DHT22;2160;51.172;6.808;2023-05-24T11:36:53;18.10;99.90
4293;DHT22;2160;51.172;6.808;2023-05-24T11:39:28;18.00;99.90
4293;DHT22;2160;51.172;6.808;2023-05-24T11:42:08;18.10;99.90
4293;DHT22;2160;51.172;6.808;2023-05-24T11:44:42;18.00;99.60
4293;DHT22;2160;51.172;6.808;2023-05-24T11:47:19;18.10;98.20
4293;DHT22;2160;51.172;6.808;2023-05-24T11:49:50;18.10;98.70
4293;DHT22;2160;51.172;6.808;2023-05-24T11:52:21;18.10;99.40
4293;DHT22;2160;51.172;6.808;2023-05-24T11:54:56;18.10;97.00
4293;DHT22;2160;51.172;6.808;2023-05-24T11:57:39;18.20;99.20
4293;DHT22;2160;51.172;6.808;2023-05-24T12:00:23;18.20;98.60
4293;DHT22;2160;51.172;6.808;2023-05-24T12:02:58;18.20;98.60
4293;DHT22;2160;51.172;6.808;2023-05-24T12:05:39;18.30;98.20
4293;DHT22;2160;51.172;6.808;2023-05-24T12:08:16;18.30;99.20
4293;DHT22;2160;51.172;6.808;2023-05-24T12:11:25;18.30;97.40
4293;DHT22;2160;51.172;6.808;2023-05-24T12:14:01;18.10;95.60
4293;DHT22;2160;51.172;6.808;2023-05-24T12:16:38;18.20;96.30
4293;DHT22;2160;51.172;6.808;2023-05-24T12:19:19;18.30;98.20
4293;DHT22;2160;51.172;6.808;2023-05-24T12:22:00;18.30;98.30
4293;DHT22;2160;51.172;6.808;2023-05-24T12:24:51;18.30;98.60
4293;DHT22;2160;51.172;6.808;2023-05-24T12:27:26;18.30;96.10
4293;DHT22;2160;51.172;6.808;2023-05-24T12:30:20;18.20;96.50
4293;DHT22;2160;51.172;6.808;2023-05-24T12:32:48;18.40;96.90
4293;DHT22;2160;51.172;6.808;2023-05-24T12:35:22;18.40;98.10
4293;DHT22;2160;51.172;6.808;2023-05-24T12:37:57;18.40;95.80
4293;DHT22;2160;51.172;6.808;2023-05-24T12:40:33;18.40;97.10
4293;DHT22;2160;51.172;6.808;2023-05-24T12:43:04;18.70;97.60
4293;DHT22;2160;51.172;6.808;2023-05-24T12:45:31;18.80;97.20
4293;DHT22;2160;51.172;6.808;2023-05-24T12:47:58;19.00;95.90
4293;DHT22;2160;51.172;6.808;2023-05-24T12:50:30;19.10;96.90
4293;DHT22;2160;51.172;6.808;2023-05-24T12:52:59;19.10;95.20
4293;DHT22;2160;51.172;6.808;2023-05-24T12:55:32;19.20;95.00
4293;DHT22;2160;51.172;6.808;2023-05-24T12:57:59;19.10;96.80
4293;DHT22;2160;51.172;6.808;2023-05-24T13:00:28;19.00;96.80
4293;DHT22;2160;51.172;6.808;2023-05-24T13:02:56;19.10;95.10
4293;DHT22;2160;51.172;6.808;2023-05-24T13:05:25;19.20;95.00
4293;DHT22;2160;51.172;6.808;2023-05-24T13:07:53;19.30;95.30
4293;DHT22;2160;51.172;6.808;2023-05-24T13:10:21;19.50;95.30
4293;DHT22;2160;51.172;6.808;2023-05-24T13:12:49;19.50;95.00
4293;DHT22;2160;51.172;6.808;2023-05-24T13:15:16;19.30;94.60
4293;DHT22;2160;51.172;6.808;2023-05-24T13:17:44;19.50;96.20
4293;DHT22;2160;51.172;6.808;2023-05-24T13:20:12;19.60;95.80
4293;DHT22;2160;51.172;6.808;2023-05-24T13:22:39;19.60;94.40
4293;DHT22;2160;51.172;6.808;2023-05-24T13:25:07;19.60;95.20
4293;DHT22;2160;51.172;6.808;2023-05-24T13:27:35;19.40;94.20
4293;DHT22;2160;51.172;6.808;2023-05-24T13:30:04;19.40;94.60
4293;DHT22;2160;51.172;6.808;2023-05-24T13:32:31;19.50;94.00
4293;DHT22;2160;51.172;6.808;2023-05-24T13:34:59;19.50;93.90
4293;DHT22;2160;51.172;6.808;2023-05-24T13:37:26;19.60;94.60
4293;DHT22;2160;51.172;6.808;2023-05-24T13:39:53;19.50;93.70
4293;DHT22;2160;51.172;6.808;2023-05-24T13:42:20;19.50;93.20
4293;DHT22;2160;51.172;6.808;2023-05-24T13:44:47;19.60;95.00
4293;DHT22;2160;51.172;6.808;2023-05-24T13:47:16;19.70;95.10
4293;DHT22;2160;51.172;6.808;2023-05-24T13:49:44;19.70;93.20
4293;DHT22;2160;51.172;6.808;2023-05-24T13:52:12;19.60;94.10
4293;DHT22;2160;51.172;6.808;2023-05-24T13:54:39;19.60;95.70
4293;DHT22;2160;51.172;6.808;2023-05-24T13:57:06;19.60;95.40
4293;DHT22;2160;51.172;6.808;2023-05-24T13:59:33;19.70;96.40
4293;DHT22;2160;51.172;6.808;2023-05-24T14:02:00;19.70;95.70
4293;DHT22;2160;51.172;6.808;2023-05-24T14:04:29;19.60;95.00
4293;DHT22;2160;51.172;6.808;2023-05-24T14:06:56;19.60;94.90
4293;DHT22;2160;51.172;6.808;2023-05-24T14:09:23;19.60;96.00
4293;DHT22;2160;51.172;6.808;2023-05-24T14:11:50;19.40;95.40
4293;DHT22;2160;51.172;6.808;2023-05-24T14:14:17;19.50;95.10
4293;DHT22;2160;51.172;6.808;2023-05-24T14:16:45;19.60;95.30
4293;DHT22;2160;51.172;6.808;2023-05-24T14:19:17;19.60;96.00
4293;DHT22;2160;51.172;6.808;2023-05-24T14:21:45;19.80;95.50
4293;DHT22;2160;51.172;6.808;2023-05-24T14:24:12;19.80;95.10
4293;DHT22;2160;51.172;6.808;2023-05-24T14:26:39;19.70;95.60
4293;DHT22;2160;51.172;6.808;2023-05-24T14:29:07;19.70;95.50
4293;DHT22;2160;51.172;6.808;2023-05-24T14:31:34;19.90;95.50
4293;DHT22;2160;51.172;6.808;2023-05-24T14:34:07;20.00;95.20
4293;DHT22;2160;51.172;6.808;2023-05-24T14:36:35;20.00;96.10
4293;DHT22;2160;51.172;6.808;2023-05-24T14:39:05;19.90;95.40
4293;DHT22;2160;51.172;6.808;2023-05-24T14:41:32;19.90;95.20
4293;DHT22;2160;51.172;6.808;2023-05-24T14:43:59;19.90;97.10
4293;DHT22;2160;51.172;6.808;2023-05-24T14:46:26;20.00;96.70
4293;DHT22;2160;51.172;6.808;2023-05-24T14:48:53;20.00;96.70
4293;DHT22;2160;51.172;6.808;2023-05-24T14:51:20;20.00;97.50
4293;DHT22;2160;51.172;6.808;2023-05-24T14:53:47;20.00;96.70
4293;DHT22;2160;51.172;6.808;2023-05-24T14:56:16;20.10;96.60
4293;DHT22;2160;51.172;6.808;2023-05-24T14:58:43;20.20;97.00
4293;DHT22;2160;51.172;6.808;2023-05-24T15:01:10;20.10;95.80
4293;DHT22;2160;51.172;6.808;2023-05-24T15:03:37;20.00;95.40
4293;DHT22;2160;51.172;6.808;2023-05-24T15:06:04;19.90;95.30
4293;DHT22;2160;51.172;6.808;2023-05-24T15:08:32;19.80;96.30
4293;DHT22;2160;51.172;6.808;2023-05-24T15:11:00;19.80;94.90
4293;DHT22;2160;51.172;6.808;2023-05-24T15:13:28;19.70;93.40
4293;DHT22;2160;51.172;6.808;2023-05-24T15:15:55;19.70;94.60
4293;DHT22;2160;51.172;6.808;2023-05-24T15:18:25;19.70;93.80
4293;DHT22;2160;51.172;6.808;2023-05-24T15:20:52;19.70;92.70
4293;DHT22;2160;51.172;6.808;2023-05-24T15:23:19;19.90;94.60
4293;DHT22;2160;51.172;6.808;2023-05-24T15:25:46;19.80;95.60
4293;DHT22;2160;51.172;6.808;2023-05-24T15:28:13;19.60;95.40
4293;DHT22;2160;51.172;6.808;2023-05-24T15:30:44;19.50;95.50
4293;DHT22;2160;51.172;6.808;2023-05-24T15:33:12;19.70;95.30
4293;DHT22;2160;51.172;6.808;2023-05-24T15:35:41;19.80;94.90
4293;DHT22;2160;51.172;6.808;2023-05-24T15:38:08;19.70;94.70
4293;DHT22;2160;51.172;6.808;2023-05-24T15:40:35;19.60;94.90
4293;DHT22;2160;51.172;6.808;2023-05-24T15:43:06;19.70;94.30
4293;DHT22;2160;51.172;6.808;2023-05-24T15:45:33;19.80;93.90
4293;DHT22;2160;51.172;6.808;2023-05-24T15:48:02;19.60;93.80
4293;DHT22;2160;51.172;6.808;2023-05-24T15:50:30;19.50;93.40
4293;DHT22;2160;51.172;6.808;2023-05-24T15:52:57;19.50;94.50
4293;DHT22;2160;51.172;6.808;2023-05-24T15:55:24;19.50;94.40
4293;DHT22;2160;51.172;6.808;2023-05-24T15:57:51;19.50;95.10
4293;DHT22;2160;51.172;6.808;2023-05-24T16:00:18;19.40;95.80
4293;DHT22;2160;51.172;6.808;2023-05-24T16:02:46;19.60;95.50
4293;DHT22;2160;51.172;6.808;2023-05-24T16:05:14;19.60;95.10
4293;DHT22;2160;51.172;6.808;2023-05-24T16:07:42;19.50;93.80
4293;DHT22;2160;51.172;6.808;2023-05-24T16:10:09;19.30;94.40
4293;DHT22;2160;51.172;6.808;2023-05-24T16:12:36;19.30;94.60
4293;DHT22;2160;51.172;6.808;2023-05-24T16:15:04;19.30;95.10
4293;DHT22;2160;51.172;6.808;2023-05-24T16:17:31;19.40;95.60
4293;DHT22;2160;51.172;6.808;2023-05-24T16:19:58;19.30;94.70
4293;DHT22;2160;51.172;6.808;2023-05-24T16:22:27;19.30;94.40
4293;DHT22;2160;51.172;6.808;2023-05-24T16:24:54;19.40;94.60
4293;DHT22;2160;51.172;6.808;2023-05-24T16:27:21;19.50;95.30
4293;DHT22;2160;51.172;6.808;2023-05-24T16:29:48;19.40;96.10
4293;DHT22;2160;51.172;6.808;2023-05-24T16:32:15;19.50;96.10
4293;DHT22;2160;51.172;6.808;2023-05-24T16:34:42;19.30;94.50
4293;DHT22;2160;51.172;6.808;2023-05-24T16:37:09;19.50;95.80
4293;DHT22;2160;51.172;6.808;2023-05-24T16:39:37;19.40;95.60
4293;DHT22;2160;51.172;6.808;2023-05-24T16:42:04;19.30;95.20
4293;DHT22;2160;51.172;6.808;2023-05-24T16:44:33;19.30;94.90
4293;DHT22;2160;51.172;6.808;2023-05-24T16:46:59;19.10;95.60
4293;DHT22;2160;51.172;6.808;2023-05-24T16:49:27;19.10;95.20
4293;DHT22;2160;51.172;6.808;2023-05-24T16:51:54;19.10;96.30
4293;DHT22;2160;51.172;6.808;2023-05-24T16:54:21;19.10;96.60
4293;DHT22;2160;51.172;6.808;2023-05-24T16:56:49;18.80;96.60
4293;DHT22;2160;51.172;6.808;2023-05-24T16:59:19;18.90;96.30
4293;DHT22;2160;51.172;6.808;2023-05-24T17:01:46;18.80;97.30
4293;DHT22;2160;51.172;6.808;2023-05-24T17:04:15;18.90;96.70
4293;DHT22;2160;51.172;6.808;2023-05-24T17:06:42;19.10;96.80
4293;DHT22;2160;51.172;6.808;2023-05-24T17:09:09;19.10;96.70
4293;DHT22;2160;51.172;6.808;2023-05-24T17:11:36;19.20;96.60
4293;DHT22;2160;51.172;6.808;2023-05-24T17:14:04;19.30;96.10
4293;DHT22;2160;51.172;6.808;2023-05-24T17:16:31;19.20;95.60
4293;DHT22;2160;51.172;6.808;2023-05-24T17:18:58;19.10;95.70
4293;DHT22;2160;51.172;6.808;2023-05-24T17:21:25;19.10;96.20
4293;DHT22;2160;51.172;6.808;2023-05-24T17:23:55;19.10;96.30
4293;DHT22;2160;51.172;6.808;2023-05-24T17:26:22;19.20;96.20
4293;DHT22;2160;51.172;6.808;2023-05-24T17:28:49;19.20;95.50
4293;DHT22;2160;51.172;6.808;2023-05-24T17:31:18;19.30;96.10
4293;DHT22;2160;51.172;6.808;2023-05-24T17:33:45;19.40;96.30
4293;DHT22;2160;51.172;6.808;2023-05-24T17:36:12;19.50;95.90
4293;DHT22;2160;51.172;6.808;2023-05-24T17:38:39;19.40;95.60
4293;DHT22;2160;51.172;6.808;2023-05-24T17:41:06;19.40;95.80
4293;DHT22;2160;51.172;6.808;2023-05-24T17:43:34;19.40;95.90
4293;DHT22;2160;51.172;6.808;2023-05-24T17:46:03;19.30;95.40
4293;DHT22;2160;51.172;6.808;2023-05-24T17:48:34;19.30;95.80
4293;DHT22;2160;51.172;6.808;2023-05-24T17:51:03;19.40;95.80
4293;DHT22;2160;51.172;6.808;2023-05-24T17:53:30;19.30;97.20
4293;DHT22;2160;51.172;6.808;2023-05-24T17:55:59;19.40;96.40
4293;DHT22;2160;51.172;6.808;2023-05-24T17:58:26;19.40;96.10
4293;DHT22;2160;51.172;6.808;2023-05-24T18:00:55;19.40;96.00
4293;DHT22;2160;51.172;6.808;2023-05-24T18:03:22;19.40;97.70
4293;DHT22;2160;51.172;6.808;2023-05-24T18:05:51;19.30;96.40
4293;DHT22;2160;51.172;6.808;2023-05-24T18:08:17;19.20;97.90
4293;DHT22;2160;51.172;6.808;2023-05-24T18:10:44;19.30;97.80
4293;DHT22;2160;51.172;6.808;2023-05-24T18:13:11;19.20;97.60
4293;DHT22;2160;51.172;6.808;2023-05-24T18:15:39;19.30;97.30
4293;DHT22;2160;51.172;6.808;2023-05-24T18:18:06;19.20;97.90
4293;DHT22;2160;51.172;6.808;2023-05-24T18:20:33;19.20;98.30
4293;DHT22;2160;51.172;6.808;2023-05-24T18:23:01;19.10;97.10
4293;DHT22;2160;51.172;6.808;2023-05-24T18:25:29;19.20;98.40
4293;DHT22;2160;51.172;6.808;2023-05-24T18:27:56;19.20;98.40
4293;DHT22;2160;51.172;6.808;2023-05-24T18:30:24;19.20;99.90
4293;DHT22;2160;51.172;6.808;2023-05-24T18:32:51;19.20;99.50
4293;DHT22;2160;51.172;6.808;2023-05-24T18:35:19;19.20;99.90
4293;DHT22;2160;51.172;6.808;2023-05-24T18:37:46;19.00;99.90
4293;DHT22;2160;51.172;6.808;2023-05-24T18:40:15;19.00;99.90
4293;DHT22;2160;51.172;6.808;2023-05-24T18:42:42;19.00;99.90
4293;DHT22;2160;51.172;6.808;2023-05-24T18:45:10;18.90;99.90
4293;DHT22;2160;51.172;6.808;2023-05-24T18:47:37;18.80;99.90
4293;DHT22;2160;51.172;6.808;2023-05-24T18:50:06;18.80;99.90
4293;DHT22;2160;51.172;6.808;2023-05-24T18:52:33;18.80;99.90
4293;DHT22;2160;51.172;6.808;2023-05-24T18:55:00;18.70;99.90
4293;DHT22;2160;51.172;6.808;2023-05-24T18:57:30;18.60;99.90
4293;DHT22;2160;51.172;6.808;2023-05-24T18:59:58;18.70;99.90
4293;DHT22;2160;51.172;6.808;2023-05-24T19:02:25;18.60;99.90
4293;DHT22;2160;51.172;6.808;2023-05-24T19:04:52;18.50;99.90
4293;DHT22;2160;51.172;6.808;2023-05-24T19:07:19;18.40;99.90
4293;DHT22;2160;51.172;6.808;2023-05-24T19:09:46;18.40;99.90
4293;DHT22;2160;51.172;6.808;2023-05-24T19:12:13;18.30;99.90
4293;DHT22;2160;51.172;6.808;2023-05-24T19:14:42;18.30;99.90
4293;DHT22;2160;51.172;6.808;2023-05-24T19:17:09;18.20;99.90
4293;DHT22;2160;51.172;6.808;2023-05-24T19:19:36;18.20;99.90
4293;DHT22;2160;51.172;6.808;2023-05-24T19:22:03;18.20;99.90
4293;DHT22;2160;51.172;6.808;2023-05-24T19:24:30;18.10;99.90
4293;DHT22;2160;51.172;6.808;2023-05-24T19:26:58;18.00;99.90
4293;DHT22;2160;51.172;6.808;2023-05-24T19:29:25;18.00;99.90
4293;DHT22;2160;51.172;6.808;2023-05-24T19:31:54;18.00;99.90
4293;DHT22;2160;51.172;6.808;2023-05-24T19:34:21;18.00;99.90
4293;DHT22;2160;51.172;6.808;2023-05-24T19:36:48;18.00;99.90
4293;DHT22;2160;51.172;6.808;2023-05-24T19:39:15;17.90;99.90
4293;DHT22;2160;51.172;6.808;2023-05-24T19:41:42;17.80;99.90
4293;DHT22;2160;51.172;6.808;2023-05-24T19:44:08;17.80;99.90
4293;DHT22;2160;51.172;6.808;2023-05-24T19:46:35;17.80;99.90
4293;DHT22;2160;51.172;6.808;2023-05-24T19:49:04;17.80;99.90
4293;DHT22;2160;51.172;6.808;2023-05-24T19:51:31;17.80;99.90
4293;DHT22;2160;51.172;6.808;2023-05-24T19:53:59;17.70;99.90
4293;DHT22;2160;51.172;6.808;2023-05-24T19:56:26;17.60;99.90
4293;DHT22;2160;51.172;6.808;2023-05-24T19:58:53;17.60;99.90
4293;DHT22;2160;51.172;6.808;2023-05-24T20:01:20;17.60;99.90
4293;DHT22;2160;51.172;6.808;2023-05-24T20:03:47;17.50;99.90
4293;DHT22;2160;51.172;6.808;2023-05-24T20:06:15;17.40;99.90
4293;DHT22;2160;51.172;6.808;2023-05-24T20:08:43;17.50;99.90
4293;DHT22;2160;51.172;6.808;2023-05-24T20:11:10;17.50;99.90
4293;DHT22;2160;51.172;6.808;2023-05-24T20:13:38;17.40;99.90
4293;DHT22;2160;51.172;6.808;2023-05-24T20:16:08;17.30;99.90
4293;DHT22;2160;51.172;6.808;2023-05-24T20:18:35;17.20;99.90
4293;DHT22;2160;51.172;6.808;2023-05-24T20:21:02;17.10;99.90
4293;DHT22;2160;51.172;6.808;2023-05-24T20:23:31;17.00;99.90